Hugo, OK (74743)

7:00 PM CDT on August 30, 2016 (GMT -0500)
Stamper Municipal | | Change Station

Elev 571 ft 34.03 °N, 95.54 °W | Updated 25 minutes ago

Clear
Clear
86 °F
Feels Like 93 °F
N
6
Wind Variable Wind from NE

Today
High -- | Low -- °F
--% Chance of Precip.
Yesterday
High -- | Low -- °F
Precip. -- in
Pressure 29.97 in
Visibility 10.0 miles
Clouds Clear
Heat Index 93 °F
Dew Point 73 °F
Humidity 65%
Rainfall 0.00 in
Snow Depth Not available.
6:54 AM 7:49 PM
Waning Crescent, 2% visible
METAR KHHW 302335Z AUTO 04005KT 10SM CLR 30/23 A2997 RMK AO2 T03000227
Pressure 29.97 in
Visibility 10.0 miles
Clouds Clear
Heat Index 93 °F
Dew Point 73 °F
Humidity 65%
Rainfall 0.00 in
Snow Depth Not available.
6:54 AM 7:49 PM
Waning Crescent, 2% visible
METAR KHHW 302335Z AUTO 04005KT 10SM CLR 30/23 A2997 RMK AO2 T03000227

10-Day Weather Forecast

Almanac

Astronomy

Aug. 30, 2016 Rise Set
Actual Time
Civil Twilight
Nautical Twilight
Astronomical Twilight
Moon
Length of Visible Light
Length of Day
Tomorrow will be .
, % of the Moon is Illuminated

Today's Extremes

State Highs State Lows

Community

WunderPhotos

Upload Photos

1,935,947 photos uploaded!

WunderBlog® & News

Nearby

Air Quality

  Air Quality AQ Index Pollutant
Not available.

Snow Depth

Station Depth Elevation

Earthquake Activity

City Distance Mag. Time & Date
Minimum magnitude displayed is 2.5.

Coastal Water Temperatures

Place Temperature

Stations

Nearby Weather Stations

Station Location Temp. Windchill Dew Point Humidity Wind Precip. Elev Updated Type
                   

Watches & Warnings

There are currently no watches in effect.